This is the latest recevied weather packets stored in our database for station/object EA4BCR. If no packets are shown the sender has not sent any weather packets the latest 10 day(s).
| Time | Temp. | Humidity | Pressure | Rain* | Wind** | Luminosity | Snow |
|---|---|---|---|---|---|---|---|
| 1787918416 | 24.44° C | 30% | 1017.4 hPa | - | - | - | - |
| 1787917815 | 23.33° C | 30% | 1017.8 hPa | - | - | - | - |
| 1787917215 | 23.89° C | 32% | 1017.8 hPa | - | - | - | - |
| 1787916615 | 24.44° C | 30% | 1017.5 hPa | - | - | - | - |
| 1787916015 | 23.89° C | 30% | 1017.8 hPa | - | - | - | - |
| 1787915415 | 23.89° C | 30% | 1017.8 hPa | - | - | - | - |
| 1787914815 | 22.78° C | 32% | 1018.4 hPa | - | - | - | - |
| 1787914215 | 22.22° C | 32% | 1018.5 hPa | - | - | - | - |
| 1787913615 | 22.78° C | 32% | 1018.3 hPa | - | - | - | - |
| 1787913017 | 22.22° C | 32% | 1018.6 hPa | - | - | - | - |
| 1787912415 | 22.22° C | 33% | 1018.5 hPa | - | - | - | - |
| 1787911815 | 22.22° C | 31% | 1018.7 hPa | - | - | - | - |
| 1787911215 | 21.67° C | 33% | 1018.8 hPa | - | - | - | - |
| 1787910615 | 21.11° C | 38% | 1019.3 hPa | - | - | - | - |
| 1787910015 | 21.11° C | 37% | 1019.2 hPa | - | - | - | - |
| 1787909415 | 20.56° C | 37% | 1019.5 hPa | - | - | - | - |
| 1787908815 | 20.56° C | 37% | 1019.4 hPa | - | - | - | - |
| 1787908215 | 19.44° C | 39% | 1019.8 hPa | - | - | - | - |
| 1787907615 | 19.44° C | 43% | 1019.8 hPa | - | - | - | - |
| 1787907015 | 19.44° C | 44% | 1019.8 hPa | - | - | - | - |
| 1787906415 | 18.89° C | 47% | 1019.9 hPa | - | - | - | - |
| 1787905816 | 18.33° C | 49% | 1019.9 hPa | - | - | - | - |
| 1787905215 | 18.33° C | 51% | 1020.2 hPa | - | - | - | - |
| 1787904615 | 17.78° C | 53% | 1020.2 hPa | - | - | - | - |
| 1787904015 | 17.22° C | 55% | 1020.4 hPa | - | - | - | - |
* Rain since midnight (hover to see other rain measurements)
** Current wind speed in m/s (hover to see current wind gust speed)